createdAt,value
2018-05-06T00:04:29.040Z,16.00
2018-05-06T00:06:57.257Z,16.00
2018-05-06T00:09:24.731Z,15.90
2018-05-06T00:11:52.942Z,15.90
2018-05-06T00:14:20.398Z,15.90
2018-05-06T00:16:47.839Z,15.80
2018-05-06T00:19:15.310Z,15.70
2018-05-06T00:21:42.745Z,15.70
2018-05-06T00:24:10.195Z,15.70
2018-05-06T00:26:37.653Z,15.70
2018-05-06T00:29:05.126Z,15.70
2018-05-06T00:31:32.564Z,15.60
2018-05-06T00:34:00.022Z,15.60
2018-05-06T00:36:27.458Z,15.60
2018-05-06T00:38:54.918Z,15.50
2018-05-06T00:41:22.379Z,15.50
2018-05-06T00:43:49.877Z,15.40
2018-05-06T00:46:18.093Z,15.40
2018-05-06T00:48:45.560Z,15.40
2018-05-06T00:51:13.770Z,15.20
2018-05-06T00:53:41.229Z,15.20
2018-05-06T00:56:08.681Z,15.20
2018-05-06T00:58:36.137Z,15.20
2018-05-06T01:01:03.579Z,15.10
2018-05-06T01:03:31.046Z,15.10
2018-05-06T01:05:58.490Z,15.10
2018-05-06T01:08:25.936Z,15.10
2018-05-06T01:10:56.317Z,15.10
2018-05-06T01:13:23.750Z,15.10
2018-05-06T01:15:51.249Z,15.10
2018-05-06T01:18:18.687Z,15.10
2018-05-06T01:20:46.923Z,14.90
2018-05-06T01:23:14.402Z,14.90
2018-05-06T01:25:41.853Z,15.00
2018-05-06T01:28:10.061Z,15.00
2018-05-06T01:30:37.510Z,15.00
2018-05-06T01:33:04.947Z,15.00
2018-05-06T01:35:32.406Z,15.00
2018-05-06T01:37:59.846Z,15.00
2018-05-06T01:40:27.298Z,15.00
2018-05-06T01:42:54.746Z,15.00
2018-05-06T01:45:22.204Z,14.90
2018-05-06T01:47:50.418Z,14.80
2018-05-06T01:50:17.861Z,14.80
2018-05-06T01:52:45.306Z,14.70
2018-05-06T01:55:12.761Z,14.70
2018-05-06T01:57:40.247Z,14.60
2018-05-06T02:00:07.701Z,14.50
2018-05-06T02:02:35.898Z,14.40
2018-05-06T02:05:03.346Z,14.40
2018-05-06T02:07:30.793Z,14.40
2018-05-06T02:09:58.237Z,14.20
2018-05-06T02:12:25.702Z,14.20
2018-05-06T02:14:53.146Z,14.20
2018-05-06T02:17:20.638Z,14.20
2018-05-06T02:19:48.081Z,14.30
2018-05-06T02:22:15.541Z,14.20
2018-05-06T02:24:42.973Z,14.20
2018-05-06T02:27:10.458Z,14.20
2018-05-06T02:29:37.909Z,14.10
2018-05-06T02:32:05.368Z,14.10
2018-05-06T02:34:32.802Z,14.10
2018-05-06T02:37:01.051Z,13.90
2018-05-06T02:39:28.510Z,13.90
2018-05-06T02:41:55.958Z,13.90
2018-05-06T02:44:24.190Z,13.80
2018-05-06T02:46:51.638Z,13.80
2018-05-06T02:51:52.958Z,13.90
2018-05-06T02:54:20.414Z,13.90
2018-05-06T02:56:47.872Z,13.80
2018-05-06T02:59:15.329Z,13.80
2018-05-06T03:01:42.786Z,13.80
2018-05-06T03:04:10.249Z,13.70
2018-05-06T03:06:37.718Z,13.70
2018-05-06T03:09:05.935Z,13.80
2018-05-06T03:11:33.383Z,13.80
2018-05-06T03:14:00.844Z,13.70
2018-05-06T03:16:28.278Z,13.80
2018-05-06T03:18:57.245Z,13.80
2018-05-06T03:21:24.687Z,13.80
2018-05-06T03:23:52.120Z,13.90
2018-05-06T03:26:19.582Z,13.80
2018-05-06T03:28:47.007Z,13.70
2018-05-06T03:31:14.474Z,13.60
2018-05-06T03:33:41.918Z,13.60
2018-05-06T03:36:09.354Z,13.50
2018-05-06T03:38:36.814Z,13.50
2018-05-06T03:41:05.077Z,13.50
2018-05-06T03:43:33.287Z,13.50
2018-05-06T03:46:00.730Z,13.50
2018-05-06T03:48:28.186Z,13.60
2018-05-06T03:50:55.646Z,13.40
2018-05-06T03:53:23.101Z,13.30
2018-05-06T03:56:15.219Z,13.10
2018-05-06T03:58:54.452Z,13.10
2018-05-06T04:01:21.910Z,13.00
2018-05-06T04:03:49.345Z,13.20
2018-05-06T04:06:16.778Z,13.30
2018-05-06T04:08:44.221Z,13.30
2018-05-06T04:11:11.645Z,13.20
2018-05-06T04:13:39.189Z,13.20
2018-05-06T04:16:06.613Z,13.20
2018-05-06T04:18:34.071Z,13.30
2018-05-06T04:21:01.503Z,13.20
2018-05-06T04:23:28.950Z,13.20
2018-05-06T04:25:56.394Z,13.10
2018-05-06T04:28:23.840Z,13.10
2018-05-06T04:30:51.322Z,13.00
2018-05-06T04:33:18.767Z,13.00
2018-05-06T04:35:46.214Z,13.00
2018-05-06T04:38:13.658Z,13.00
2018-05-06T04:40:41.853Z,12.90
2018-05-06T04:43:09.342Z,12.90
2018-05-06T04:45:36.770Z,12.90
2018-05-06T04:48:04.967Z,12.90
2018-05-06T04:50:33.186Z,13.00
2018-05-06T04:53:00.629Z,12.90
2018-05-06T04:55:28.142Z,12.90
2018-05-06T04:57:55.602Z,13.00
2018-05-06T05:00:23.809Z,13.10
2018-05-06T05:02:51.258Z,13.10
2018-05-06T05:05:18.709Z,13.20
2018-05-06T05:07:46.141Z,13.20
2018-05-06T05:10:13.590Z,13.10
2018-05-06T05:12:41.034Z,13.20
2018-05-06T05:15:08.476Z,13.20
2018-05-06T05:17:35.916Z,13.20
2018-05-06T05:20:03.373Z,13.30
2018-05-06T05:22:30.801Z,13.20
2018-05-06T05:24:58.241Z,13.30
2018-05-06T05:27:25.698Z,13.30
2018-05-06T05:29:53.148Z,13.60
2018-05-06T05:32:20.610Z,13.80
2018-05-06T05:34:48.847Z,14.00
2018-05-06T05:37:16.292Z,13.90
2018-05-06T05:39:43.735Z,14.00
2018-05-06T05:42:11.194Z,14.10
2018-05-06T05:44:39.436Z,14.40
2018-05-06T05:47:06.862Z,14.40
2018-05-06T05:49:34.294Z,14.60
2018-05-06T05:52:01.751Z,15.20
2018-05-06T05:54:29.194Z,15.50
2018-05-06T05:56:56.662Z,15.90
2018-05-06T05:59:24.098Z,16.30
2018-05-06T06:01:51.560Z,16.50
2018-05-06T06:04:18.998Z,16.10
2018-05-06T06:06:46.446Z,15.60
2018-05-06T06:09:13.905Z,15.60
2018-05-06T06:11:41.346Z,15.80
2018-05-06T06:14:08.781Z,15.90
2018-05-06T06:16:36.230Z,16.00
2018-05-06T06:19:03.677Z,16.20
2018-05-06T06:21:31.137Z,16.80
2018-05-06T06:23:59.341Z,17.50
2018-05-06T06:26:26.789Z,17.40
2018-05-06T06:28:54.282Z,17.60
2018-05-06T06:31:21.714Z,17.80
2018-05-06T06:33:49.245Z,17.60
2018-05-06T06:36:16.695Z,17.90
2018-05-06T06:38:44.122Z,18.10
2018-05-06T06:41:11.569Z,18.30
2018-05-06T06:43:38.994Z,18.80
2018-05-06T06:46:06.468Z,19.10
2018-05-06T06:48:33.910Z,18.70
2018-05-06T06:51:01.354Z,18.80
2018-05-06T06:53:28.817Z,19.00
2018-05-06T06:55:57.013Z,19.30
2018-05-06T06:58:24.466Z,19.30
2018-05-06T07:00:51.913Z,19.40
2018-05-06T07:03:19.371Z,19.80
2018-05-06T07:05:46.879Z,19.70
2018-05-06T07:08:14.262Z,20.10
2018-05-06T07:10:41.838Z,20.30
2018-05-06T07:13:10.043Z,20.10
2018-05-06T07:15:37.473Z,20.10
2018-05-06T07:18:04.974Z,20.10
2018-05-06T07:20:32.410Z,20.50
2018-05-06T07:22:59.850Z,20.90
2018-05-06T07:25:27.294Z,21.00
2018-05-06T07:27:54.735Z,21.00
2018-05-06T07:30:22.183Z,20.90
2018-05-06T07:32:49.639Z,20.90
2018-05-06T07:35:17.842Z,20.60
2018-05-06T07:37:45.284Z,20.60
2018-05-06T07:40:12.743Z,20.90
2018-05-06T07:42:40.183Z,21.10
2018-05-06T07:45:07.641Z,21.10
2018-05-06T07:47:35.079Z,20.80
2018-05-06T07:50:02.544Z,20.90
2018-05-06T07:52:29.976Z,21.00
2018-05-06T07:54:57.419Z,21.20
2018-05-06T07:57:24.859Z,21.50
2018-05-06T07:59:52.306Z,21.60
2018-05-06T08:02:19.738Z,22.00
2018-05-06T08:04:47.194Z,21.30
2018-05-06T08:07:14.652Z,21.20
2018-05-06T08:09:42.109Z,21.10
2018-05-06T08:12:09.550Z,21.40
2018-05-06T08:14:37.010Z,21.70
2018-05-06T08:17:04.480Z,21.80
2018-05-06T08:19:31.965Z,21.60
2018-05-06T08:22:00.166Z,22.50
2018-05-06T08:24:27.606Z,22.40
2018-05-06T08:26:55.071Z,22.80
2018-05-06T08:29:22.531Z,23.20
2018-05-06T08:31:49.974Z,23.40
2018-05-06T08:34:17.442Z,22.90
2018-05-06T08:36:44.895Z,22.80
2018-05-06T08:39:13.077Z,22.40
2018-05-06T08:41:40.567Z,22.40
2018-05-06T08:44:07.990Z,22.30
2018-05-06T08:46:35.439Z,22.20
2018-05-06T08:49:02.886Z,21.90
2018-05-06T08:51:30.483Z,21.90
2018-05-06T08:53:57.922Z,22.30
2018-05-06T08:56:25.374Z,22.70
2018-05-06T08:58:52.825Z,23.10
2018-05-06T09:01:20.255Z,23.30
2018-05-06T09:03:47.704Z,23.70
2018-05-06T09:06:15.163Z,23.70
2018-05-06T09:08:42.618Z,22.90
2018-05-06T09:11:11.080Z,23.00
2018-05-06T09:13:38.486Z,23.00
2018-05-06T09:16:06.809Z,23.60
2018-05-06T09:18:34.246Z,23.90
2018-05-06T09:21:01.699Z,23.50
2018-05-06T09:23:29.151Z,23.50
2018-05-06T09:25:56.606Z,22.80
2018-05-06T09:28:24.841Z,22.60
2018-05-06T09:30:52.351Z,22.60
2018-05-06T09:33:19.802Z,22.30
2018-05-06T09:35:47.992Z,22.70
2018-05-06T09:38:15.439Z,23.40
2018-05-06T09:40:42.963Z,23.10
2018-05-06T09:43:11.166Z,23.80
2018-05-06T09:45:39.409Z,24.00
2018-05-06T09:48:06.873Z,23.90
2018-05-06T09:50:35.069Z,23.30
2018-05-06T09:53:02.513Z,23.30
2018-05-06T09:55:29.978Z,23.20
2018-05-06T09:57:57.439Z,23.50
2018-05-06T10:00:24.903Z,23.80
2018-05-06T10:02:53.081Z,24.20
2018-05-06T10:05:20.615Z,24.20
2018-05-06T10:07:48.110Z,24.10
2018-05-06T10:10:15.558Z,24.20
2018-05-06T10:12:42.999Z,24.00
2018-05-06T10:15:10.451Z,23.70
2018-05-06T10:17:37.902Z,24.20
2018-05-06T10:20:05.354Z,23.90
2018-05-06T10:22:32.803Z,24.40
2018-05-06T10:25:01.004Z,25.00
2018-05-06T10:27:28.617Z,25.00
2018-05-06T10:29:56.824Z,24.30
2018-05-06T10:32:24.298Z,24.20
2018-05-06T10:34:51.747Z,24.50
2018-05-06T10:37:19.207Z,24.60
2018-05-06T10:39:47.401Z,25.10
2018-05-06T10:42:14.847Z,25.10
2018-05-06T10:44:42.295Z,24.80
2018-05-06T10:47:09.881Z,24.00
2018-05-06T10:49:37.189Z,23.90
2018-05-06T10:52:04.636Z,23.90
2018-05-06T10:54:32.071Z,23.60
2018-05-06T10:56:59.522Z,23.00
2018-05-06T10:59:26.957Z,22.60
2018-05-06T11:01:54.402Z,22.30
2018-05-06T11:04:21.846Z,22.10
2018-05-06T11:06:49.290Z,22.40
2018-05-06T11:09:17.505Z,22.70
2018-05-06T11:11:44.965Z,22.70
2018-05-06T11:14:12.390Z,22.70
2018-05-06T11:16:39.833Z,22.70
2018-05-06T11:19:07.284Z,22.40
2018-05-06T11:21:34.743Z,22.30
2018-05-06T11:24:02.182Z,22.10
2018-05-06T11:26:29.704Z,22.30
2018-05-06T11:28:57.897Z,21.90
2018-05-06T11:31:25.445Z,21.90
2018-05-06T11:33:52.898Z,21.90
2018-05-06T11:36:21.121Z,21.90
2018-05-06T11:38:48.548Z,21.90
2018-05-06T11:41:17.624Z,22.10
2018-05-06T11:43:45.182Z,22.00
2018-05-06T11:46:12.614Z,22.10
2018-05-06T11:48:40.051Z,22.10
2018-05-06T11:51:08.311Z,22.00
2018-05-06T11:53:36.549Z,22.30
2018-05-06T11:56:04.019Z,22.30
2018-05-06T11:58:31.481Z,22.30
2018-05-06T12:00:58.943Z,22.20
2018-05-06T12:03:26.918Z,22.20
2018-05-06T12:05:54.363Z,22.30
2018-05-06T12:08:21.885Z,22.40
2018-05-06T12:10:49.322Z,22.40
2018-05-06T12:13:16.836Z,22.60
2018-05-06T12:15:45.057Z,22.90
2018-05-06T12:18:12.515Z,22.90
2018-05-06T12:20:39.987Z,22.80
2018-05-06T12:23:08.204Z,22.50
2018-05-06T12:25:35.665Z,22.50
2018-05-06T12:28:03.141Z,22.40
2018-05-06T12:30:30.585Z,22.30
2018-05-06T12:32:58.368Z,22.20
2018-05-06T12:35:25.845Z,22.10
2018-05-06T12:37:53.400Z,22.30
2018-05-06T12:40:20.966Z,22.40
2018-05-06T12:42:48.450Z,22.50
2018-05-06T12:45:16.904Z,22.70
2018-05-06T12:47:44.406Z,22.80
2018-05-06T12:50:12.640Z,22.70
2018-05-06T12:52:40.097Z,22.80
2018-05-06T12:55:07.549Z,22.70
2018-05-06T12:57:34.997Z,22.70
2018-05-06T13:00:03.243Z,22.60
2018-05-06T13:02:30.992Z,22.60
2018-05-06T13:04:59.203Z,22.80
2018-05-06T13:07:26.690Z,22.80
2018-05-06T13:09:54.157Z,22.80
2018-05-06T13:12:22.368Z,22.40
2018-05-06T13:14:49.912Z,22.40
2018-05-06T13:17:17.391Z,22.60
2018-05-06T13:19:44.866Z,22.80
2018-05-06T13:22:12.322Z,22.80
2018-05-06T13:24:39.775Z,22.80
2018-05-06T13:27:07.213Z,22.90
2018-05-06T13:29:34.672Z,22.90
2018-05-06T13:32:02.118Z,22.90
2018-05-06T13:34:29.547Z,22.90
2018-05-06T13:36:56.993Z,23.00
2018-05-06T13:39:24.452Z,23.20
2018-05-06T13:41:51.894Z,23.30
2018-05-06T13:44:19.345Z,23.20
2018-05-06T13:46:46.786Z,23.30
2018-05-06T13:49:14.348Z,23.40
2018-05-06T13:51:41.791Z,23.30
2018-05-06T13:54:09.242Z,23.20
2018-05-06T13:56:36.674Z,23.20
2018-05-06T13:59:04.112Z,23.20
2018-05-06T14:01:31.626Z,23.10
2018-05-06T14:03:59.782Z,23.10
2018-05-06T14:06:27.235Z,23.10
2018-05-06T14:08:54.736Z,23.20
2018-05-06T14:11:22.945Z,23.00
2018-05-06T14:13:50.371Z,23.00
2018-05-06T14:16:17.830Z,23.10
2018-05-06T14:18:45.276Z,23.20
2018-05-06T14:21:12.724Z,23.20
2018-05-06T14:23:40.174Z,23.30
2018-05-06T14:26:07.636Z,23.30
2018-05-06T14:28:35.078Z,23.20
2018-05-06T14:31:03.276Z,23.00
2018-05-06T14:33:30.751Z,23.00
2018-05-06T14:35:58.190Z,23.00
2018-05-06T14:38:25.656Z,22.90
2018-05-06T14:40:53.121Z,23.10
2018-05-06T14:43:21.378Z,23.20
2018-05-06T14:45:49.655Z,23.20
2018-05-06T14:48:17.274Z,23.20
2018-05-06T14:50:44.713Z,23.20
2018-05-06T14:53:12.214Z,23.10
2018-05-06T14:55:39.641Z,23.10
2018-05-06T14:58:07.088Z,23.00
2018-05-06T15:00:34.519Z,22.90
2018-05-06T15:03:01.954Z,22.80
2018-05-06T15:05:29.398Z,22.70
2018-05-06T15:07:56.853Z,22.70
2018-05-06T15:10:24.408Z,22.80
2018-05-06T15:12:51.752Z,22.80
2018-05-06T15:15:19.211Z,22.70
2018-05-06T15:17:46.656Z,22.80
2018-05-06T15:20:14.112Z,22.80
2018-05-06T15:22:41.622Z,22.80
2018-05-06T15:25:09.068Z,22.70
2018-05-06T15:27:36.512Z,22.70
2018-05-06T15:30:03.951Z,22.70
2018-05-06T15:32:31.410Z,22.70
2018-05-06T15:34:58.857Z,22.60
2018-05-06T15:37:26.329Z,22.80
2018-05-06T15:39:53.785Z,22.80
2018-05-06T15:42:22.070Z,22.50
2018-05-06T15:44:49.525Z,22.50
2018-05-06T15:47:16.996Z,22.70
2018-05-06T15:49:44.431Z,22.70
2018-05-06T15:52:11.909Z,22.60
2018-05-06T15:54:40.123Z,22.40
2018-05-06T15:57:07.564Z,22.40
2018-05-06T15:59:35.046Z,22.40
2018-05-06T16:02:14.334Z,22.50
2018-05-06T16:04:41.842Z,22.60
2018-05-06T16:07:10.034Z,22.60
2018-05-06T16:09:37.500Z,22.50
2018-05-06T16:12:05.048Z,22.50
2018-05-06T16:14:32.369Z,22.60
2018-05-06T16:16:59.815Z,22.50
2018-05-06T16:19:27.269Z,22.50
2018-05-06T16:21:54.709Z,22.60
2018-05-06T16:24:22.187Z,22.40
2018-05-06T16:26:49.707Z,22.30
2018-05-06T16:29:17.845Z,22.20
2018-05-06T16:31:45.285Z,22.20
2018-05-06T16:34:12.730Z,22.20
2018-05-06T16:36:40.162Z,22.30
2018-05-06T16:39:08.509Z,22.30
2018-05-06T16:41:35.958Z,22.40
2018-05-06T16:44:03.431Z,22.40
2018-05-06T16:46:30.855Z,22.30
2018-05-06T16:48:58.302Z,22.20
2018-05-06T16:51:25.759Z,22.10
2018-05-06T16:53:53.218Z,22.10
2018-05-06T16:56:20.657Z,22.00
2018-05-06T16:58:48.162Z,22.00
2018-05-06T17:01:15.586Z,22.00
2018-05-06T17:03:43.033Z,21.90
2018-05-06T17:06:10.498Z,21.90
2018-05-06T17:08:37.966Z,21.80
2018-05-06T17:11:06.217Z,21.80
2018-05-06T17:13:33.674Z,21.80
2018-05-06T17:16:01.122Z,21.80
2018-05-06T17:18:28.581Z,21.80
2018-05-06T17:20:56.043Z,21.80
2018-05-06T17:23:24.292Z,21.70
2018-05-06T17:25:52.529Z,21.70
2018-05-06T17:28:20.001Z,21.70
2018-05-06T17:30:48.278Z,21.60
2018-05-06T17:33:15.710Z,21.50
2018-05-06T17:35:43.854Z,21.50
2018-05-06T17:38:12.054Z,21.40
2018-05-06T17:40:39.569Z,21.40
2018-05-06T17:43:07.766Z,21.30
2018-05-06T17:45:35.211Z,21.20
2018-05-06T17:48:02.657Z,21.30
2018-05-06T17:50:30.094Z,21.20
2018-05-06T17:52:57.577Z,21.20
2018-05-06T17:55:25.051Z,21.10
2018-05-06T17:57:52.489Z,21.10
2018-05-06T18:00:19.949Z,21.10
2018-05-06T18:02:47.403Z,21.00
2018-05-06T18:05:14.857Z,21.00
2018-05-06T18:07:42.346Z,20.80
2018-05-06T18:10:09.810Z,20.80
2018-05-06T18:12:37.244Z,20.80
2018-05-06T18:15:05.442Z,20.60
2018-05-06T18:17:32.933Z,20.60
2018-05-06T18:20:00.369Z,20.60
2018-05-06T18:22:27.797Z,20.60
2018-05-06T18:24:55.246Z,20.60
2018-05-06T18:27:22.699Z,20.50
2018-05-06T18:29:50.154Z,20.50
2018-05-06T18:32:18.434Z,20.30
2018-05-06T18:34:45.808Z,20.30
2018-05-06T18:37:13.249Z,20.30
2018-05-06T18:39:40.705Z,20.20
2018-05-06T18:42:08.158Z,20.10
2018-05-06T18:44:35.618Z,20.00
2018-05-06T18:47:03.131Z,20.00
2018-05-06T18:49:31.266Z,19.80
2018-05-06T18:51:58.754Z,19.80
2018-05-06T18:54:26.197Z,19.80
2018-05-06T18:56:53.694Z,19.70
2018-05-06T18:59:21.922Z,19.60
2018-05-06T19:01:49.323Z,19.60
2018-05-06T19:04:16.765Z,19.60
2018-05-06T19:06:44.219Z,19.50
2018-05-06T19:09:11.657Z,19.50
2018-05-06T19:11:39.163Z,19.50
2018-05-06T19:14:06.742Z,19.50
2018-05-06T19:16:34.182Z,19.50
2018-05-06T19:19:01.619Z,19.50
2018-05-06T19:21:29.115Z,19.40
2018-05-06T19:23:57.322Z,19.30
2018-05-06T19:26:24.799Z,19.30
2018-05-06T19:28:52.274Z,19.20
2018-05-06T19:31:20.005Z,19.10
2018-05-06T19:33:47.441Z,19.10
2018-05-06T19:36:14.908Z,19.00
2018-05-06T19:38:42.349Z,18.90
2018-05-06T19:41:10.578Z,18.80
2018-05-06T19:43:38.815Z,18.70
2018-05-06T19:46:06.256Z,18.60
2018-05-06T19:48:33.711Z,18.60
2018-05-06T19:51:01.169Z,18.60
2018-05-06T19:53:29.450Z,18.50
2018-05-06T19:55:56.873Z,18.40
2018-05-06T19:58:24.330Z,18.40
2018-05-06T20:00:51.754Z,18.30
2018-05-06T20:03:19.274Z,18.30
2018-05-06T20:05:46.718Z,18.30
2018-05-06T20:08:14.178Z,18.40
2018-05-06T20:10:41.618Z,18.30
2018-05-06T20:13:09.074Z,18.30
2018-05-06T20:15:36.512Z,18.30
2018-05-06T20:18:03.993Z,18.20
2018-05-06T20:20:31.420Z,18.30
2018-05-06T20:22:59.662Z,18.10
2018-05-06T20:25:27.268Z,18.10
2018-05-06T20:27:54.900Z,18.00
2018-05-06T20:30:22.342Z,18.10
2018-05-06T20:32:49.830Z,18.00
2018-05-06T20:35:17.273Z,18.00
2018-05-06T20:37:44.807Z,17.90
2018-05-06T20:40:12.296Z,17.90
2018-05-06T20:42:40.509Z,17.80
2018-05-06T20:45:07.976Z,17.70
2018-05-06T20:47:35.421Z,17.70
2018-05-06T20:50:02.875Z,17.60
2018-05-06T20:52:31.126Z,17.40
2018-05-06T20:54:58.620Z,17.40
2018-05-06T20:57:26.081Z,17.30
2018-05-06T20:59:53.573Z,17.30
2018-05-06T21:02:21.843Z,17.10
2018-05-06T21:04:49.359Z,17.10
2018-05-06T21:07:16.814Z,17.20
2018-05-06T21:09:45.060Z,17.20
2018-05-06T21:12:12.509Z,17.10
2018-05-06T21:14:39.976Z,17.10
2018-05-06T21:17:07.422Z,17.10
2018-05-06T21:19:35.639Z,17.00
2018-05-06T21:22:03.198Z,16.90
2018-05-06T21:24:30.646Z,17.00
2018-05-06T21:26:58.098Z,17.00
2018-05-06T21:29:26.298Z,16.90
2018-05-06T21:31:53.733Z,16.90
2018-05-06T21:34:21.184Z,16.90
2018-05-06T21:36:48.655Z,16.80
2018-05-06T21:39:17.897Z,16.80
2018-05-06T21:41:45.387Z,16.80
2018-05-06T21:44:12.857Z,16.70
2018-05-06T21:46:40.299Z,16.70
2018-05-06T21:49:08.504Z,16.50
2018-05-06T21:51:36.038Z,16.50
2018-05-06T21:54:03.534Z,16.50
2018-05-06T21:56:30.993Z,16.50
2018-05-06T21:58:58.434Z,16.50
2018-05-06T22:01:26.683Z,16.40
2018-05-06T22:03:54.125Z,16.40
2018-05-06T22:06:21.558Z,16.30
2018-05-06T22:08:49.002Z,16.20
2018-05-06T22:11:16.440Z,16.20
2018-05-06T22:13:43.894Z,16.10
2018-05-06T22:16:11.337Z,16.10
2018-05-06T22:18:38.824Z,16.10
2018-05-06T22:21:06.275Z,16.00
2018-05-06T22:23:33.733Z,16.00
2018-05-06T22:26:01.255Z,16.00
2018-05-06T22:28:28.723Z,16.10
2018-05-06T22:30:56.210Z,16.20
2018-05-06T22:33:23.666Z,16.00
2018-05-06T22:35:51.853Z,16.00
2018-05-06T22:38:19.295Z,16.00
2018-05-06T22:40:46.734Z,16.10
2018-05-06T22:43:14.191Z,16.10
2018-05-06T22:45:41.634Z,16.10
2018-05-06T22:48:09.092Z,15.90
2018-05-06T22:50:36.558Z,16.00
2018-05-06T22:53:04.050Z,16.00
2018-05-06T22:55:31.546Z,16.00
2018-05-06T22:57:58.982Z,15.90
2018-05-06T23:00:26.427Z,15.90
2018-05-06T23:02:53.870Z,16.00
2018-05-06T23:05:21.325Z,16.00
2018-05-06T23:07:48.769Z,16.00
2018-05-06T23:10:16.218Z,16.00
2018-05-06T23:12:44.425Z,15.90
2018-05-06T23:15:11.882Z,15.90
2018-05-06T23:17:39.316Z,15.90
2018-05-06T23:20:06.780Z,15.80
2018-05-06T23:22:35.025Z,15.80
2018-05-06T23:25:02.470Z,15.80
2018-05-06T23:27:29.915Z,15.60
2018-05-06T23:29:57.531Z,15.70
2018-05-06T23:32:24.958Z,15.80
2018-05-06T23:34:52.448Z,15.70
2018-05-06T23:37:19.926Z,15.60
2018-05-06T23:39:47.375Z,15.50
2018-05-06T23:42:14.826Z,15.40
2018-05-06T23:44:43.038Z,15.50
2018-05-06T23:47:10.478Z,15.50
2018-05-06T23:49:37.989Z,15.30
2018-05-06T23:52:05.374Z,15.20
2018-05-06T23:54:32.819Z,15.10
2018-05-06T23:57:00.273Z,15.10
2018-05-06T23:59:27.719Z,15.00
